sensor_id;sensor_type;location;lat;lon;timestamp;P1;durP1;ratioP1;P2;durP2;ratioP2
12774;SDS011;6451;42.630;23.382;2023-06-10T00:02:06;6.85;;;6.05;;
12774;SDS011;6451;42.630;23.382;2023-06-10T00:04:33;8.15;;;5.55;;
12774;SDS011;6451;42.630;23.382;2023-06-10T00:07:01;6.35;;;5.75;;
12774;SDS011;6451;42.630;23.382;2023-06-10T00:09:29;6.43;;;5.78;;
12774;SDS011;6451;42.630;23.382;2023-06-10T00:11:56;6.10;;;5.50;;
12774;SDS011;6451;42.630;23.382;2023-06-10T00:14:25;6.32;;;5.72;;
12774;SDS011;6451;42.630;23.382;2023-06-10T00:16:51;6.38;;;5.78;;
12774;SDS011;6451;42.630;23.382;2023-06-10T00:19:20;7.60;;;6.03;;
12774;SDS011;6451;42.630;23.382;2023-06-10T00:21:51;7.80;;;5.93;;
12774;SDS011;6451;42.630;23.382;2023-06-10T00:24:18;6.20;;;5.70;;
12774;SDS011;6451;42.630;23.382;2023-06-10T00:26:45;9.35;;;6.05;;
12774;SDS011;6451;42.630;23.382;2023-06-10T00:29:12;7.72;;;6.15;;
12774;SDS011;6451;42.630;23.382;2023-06-10T00:31:40;6.68;;;6.00;;
12774;SDS011;6451;42.630;23.382;2023-06-10T00:34:07;6.43;;;5.82;;
12774;SDS011;6451;42.630;23.382;2023-06-10T00:36:36;10.55;;;6.35;;
12774;SDS011;6451;42.630;23.382;2023-06-10T00:39:03;7.07;;;6.38;;
12774;SDS011;6451;42.630;23.382;2023-06-10T00:41:30;7.68;;;7.00;;
12774;SDS011;6451;42.630;23.382;2023-06-10T00:43:59;7.40;;;6.60;;
12774;SDS011;6451;42.630;23.382;2023-06-10T00:46:26;8.68;;;6.40;;
12774;SDS011;6451;42.630;23.382;2023-06-10T00:48:53;7.68;;;6.85;;
12774;SDS011;6451;42.630;23.382;2023-06-10T00:51:21;6.95;;;6.30;;
12774;SDS011;6451;42.630;23.382;2023-06-10T00:53:51;11.05;;;6.70;;
12774;SDS011;6451;42.630;23.382;2023-06-10T00:56:20;8.32;;;6.20;;
12774;SDS011;6451;42.630;23.382;2023-06-10T00:58:48;10.60;;;6.50;;
12774;SDS011;6451;42.630;23.382;2023-06-10T01:01:15;7.10;;;6.40;;
12774;SDS011;6451;42.630;23.382;2023-06-10T01:03:43;6.90;;;6.20;;
12774;SDS011;6451;42.630;23.382;2023-06-10T01:06:14;7.32;;;6.72;;
12774;SDS011;6451;42.630;23.382;2023-06-10T01:08:54;7.35;;;6.65;;
12774;SDS011;6451;42.630;23.382;2023-06-10T01:11:28;8.38;;;7.07;;
12774;SDS011;6451;42.630;23.382;2023-06-10T01:14:00;7.80;;;6.97;;
12774;SDS011;6451;42.630;23.382;2023-06-10T01:16:30;7.55;;;6.95;;
12774;SDS011;6451;42.630;23.382;2023-06-10T01:18:57;10.70;;;6.43;;
12774;SDS011;6451;42.630;23.382;2023-06-10T01:21:26;8.73;;;7.10;;
12774;SDS011;6451;42.630;23.382;2023-06-10T01:23:53;8.70;;;7.43;;
12774;SDS011;6451;42.630;23.382;2023-06-10T01:26:28;10.10;;;7.13;;
12774;SDS011;6451;42.630;23.382;2023-06-10T01:29:00;8.63;;;7.40;;
12774;SDS011;6451;42.630;23.382;2023-06-10T01:31:38;9.13;;;7.70;;
12774;SDS011;6451;42.630;23.382;2023-06-10T01:34:11;10.88;;;7.50;;
12774;SDS011;6451;42.630;23.382;2023-06-10T01:36:42;8.68;;;7.78;;
12774;SDS011;6451;42.630;23.382;2023-06-10T01:39:13;10.27;;;8.63;;
12774;SDS011;6451;42.630;23.382;2023-06-10T01:41:42;8.77;;;7.88;;
12774;SDS011;6451;42.630;23.382;2023-06-10T01:44:09;9.48;;;8.57;;
12774;SDS011;6451;42.630;23.382;2023-06-10T01:46:36;9.85;;;8.85;;
12774;SDS011;6451;42.630;23.382;2023-06-10T01:49:03;10.13;;;9.25;;
12774;SDS011;6451;42.630;23.382;2023-06-10T01:51:30;11.05;;;10.05;;
12774;SDS011;6451;42.630;23.382;2023-06-10T01:53:58;15.35;;;10.75;;
12774;SDS011;6451;42.630;23.382;2023-06-10T01:56:25;12.13;;;10.95;;
12774;SDS011;6451;42.630;23.382;2023-06-10T01:58:52;12.18;;;11.00;;
12774;SDS011;6451;42.630;23.382;2023-06-10T02:01:24;11.88;;;10.15;;
12774;SDS011;6451;42.630;23.382;2023-06-10T02:03:50;12.82;;;11.50;;
12774;SDS011;6451;42.630;23.382;2023-06-10T02:06:17;11.82;;;10.70;;
12774;SDS011;6451;42.630;23.382;2023-06-10T02:08:44;13.13;;;11.48;;
12774;SDS011;6451;42.630;23.382;2023-06-10T02:11:13;13.50;;;12.00;;
12774;SDS011;6451;42.630;23.382;2023-06-10T02:13:40;13.10;;;11.70;;
12774;SDS011;6451;42.630;23.382;2023-06-10T02:16:06;13.02;;;11.82;;
12774;SDS011;6451;42.630;23.382;2023-06-10T02:18:34;12.80;;;11.50;;
12774;SDS011;6451;42.630;23.382;2023-06-10T02:21:01;13.48;;;11.77;;
12774;SDS011;6451;42.630;23.382;2023-06-10T02:23:29;14.15;;;11.35;;
12774;SDS011;6451;42.630;23.382;2023-06-10T02:25:56;13.82;;;12.50;;
12774;SDS011;6451;42.630;23.382;2023-06-10T02:28:25;13.07;;;11.90;;
12774;SDS011;6451;42.630;23.382;2023-06-10T02:30:52;14.13;;;12.80;;
12774;SDS011;6451;42.630;23.382;2023-06-10T02:33:20;13.80;;;12.40;;
12774;SDS011;6451;42.630;23.382;2023-06-10T02:35:48;13.52;;;12.10;;
12774;SDS011;6451;42.630;23.382;2023-06-10T02:38:15;13.15;;;11.77;;
12774;SDS011;6451;42.630;23.382;2023-06-10T02:40:42;13.50;;;12.20;;
12774;SDS011;6451;42.630;23.382;2023-06-10T02:43:09;12.18;;;10.88;;
12774;SDS011;6451;42.630;23.382;2023-06-10T02:45:37;12.75;;;10.50;;
12774;SDS011;6451;42.630;23.382;2023-06-10T02:48:05;15.38;;;10.25;;
12774;SDS011;6451;42.630;23.382;2023-06-10T02:50:33;10.50;;;9.23;;
12774;SDS011;6451;42.630;23.382;2023-06-10T02:52:59;9.48;;;8.57;;
12774;SDS011;6451;42.630;23.382;2023-06-10T02:55:26;10.60;;;9.57;;
12774;SDS011;6451;42.630;23.382;2023-06-10T02:57:54;10.02;;;9.13;;
12774;SDS011;6451;42.630;23.382;2023-06-10T03:00:21;9.80;;;8.80;;
12774;SDS011;6451;42.630;23.382;2023-06-10T03:02:50;10.35;;;9.18;;
12774;SDS011;6451;42.630;23.382;2023-06-10T03:05:17;11.00;;;9.95;;
12774;SDS011;6451;42.630;23.382;2023-06-10T03:07:44;10.90;;;9.40;;
12774;SDS011;6451;42.630;23.382;2023-06-10T03:10:11;11.40;;;8.60;;
12774;SDS011;6451;42.630;23.382;2023-06-10T03:12:38;9.63;;;7.90;;
12774;SDS011;6451;42.630;23.382;2023-06-10T03:15:06;10.70;;;8.18;;
12774;SDS011;6451;42.630;23.382;2023-06-10T03:17:33;8.73;;;7.60;;
12774;SDS011;6451;42.630;23.382;2023-06-10T03:20:01;9.65;;;7.85;;
12774;SDS011;6451;42.630;23.382;2023-06-10T03:22:30;11.10;;;8.48;;
12774;SDS011;6451;42.630;23.382;2023-06-10T03:24:57;9.98;;;8.10;;
12774;SDS011;6451;42.630;23.382;2023-06-10T03:27:25;9.02;;;8.23;;
12774;SDS011;6451;42.630;23.382;2023-06-10T03:29:54;11.73;;;7.53;;
12774;SDS011;6451;42.630;23.382;2023-06-10T03:32:21;9.60;;;7.38;;
12774;SDS011;6451;42.630;23.382;2023-06-10T03:34:47;11.60;;;8.52;;
12774;SDS011;6451;42.630;23.382;2023-06-10T03:37:16;10.13;;;8.30;;
12774;SDS011;6451;42.630;23.382;2023-06-10T03:39:42;9.88;;;8.38;;
12774;SDS011;6451;42.630;23.382;2023-06-10T03:42:09;10.02;;;9.00;;
12774;SDS011;6451;42.630;23.382;2023-06-10T03:44:36;12.50;;;8.93;;
12774;SDS011;6451;42.630;23.382;2023-06-10T03:47:03;10.57;;;7.97;;
12774;SDS011;6451;42.630;23.382;2023-06-10T03:49:30;9.30;;;8.18;;
12774;SDS011;6451;42.630;23.382;2023-06-10T03:51:58;12.80;;;9.82;;
12774;SDS011;6451;42.630;23.382;2023-06-10T03:54:26;11.40;;;10.20;;
12774;SDS011;6451;42.630;23.382;2023-06-10T03:56:53;13.07;;;10.20;;
12774;SDS011;6451;42.630;23.382;2023-06-10T03:59:20;11.55;;;10.35;;
12774;SDS011;6451;42.630;23.382;2023-06-10T04:01:47;11.95;;;10.15;;
12774;SDS011;6451;42.630;23.382;2023-06-10T04:04:15;11.18;;;10.07;;
12774;SDS011;6451;42.630;23.382;2023-06-10T04:06:42;10.77;;;9.38;;
12774;SDS011;6451;42.630;23.382;2023-06-10T04:09:10;11.88;;;10.57;;
12774;SDS011;6451;42.630;23.382;2023-06-10T04:11:38;11.25;;;9.98;;
12774;SDS011;6451;42.630;23.382;2023-06-10T04:14:05;10.10;;;9.05;;
12774;SDS011;6451;42.630;23.382;2023-06-10T04:16:32;10.75;;;9.63;;
12774;SDS011;6451;42.630;23.382;2023-06-10T04:19:00;11.48;;;10.30;;
12774;SDS011;6451;42.630;23.382;2023-06-10T04:21:27;11.82;;;10.60;;
12774;SDS011;6451;42.630;23.382;2023-06-10T04:23:54;13.73;;;10.98;;
12774;SDS011;6451;42.630;23.382;2023-06-10T04:26:21;13.85;;;11.25;;
12774;SDS011;6451;42.630;23.382;2023-06-10T04:28:49;13.85;;;10.15;;
12774;SDS011;6451;42.630;23.382;2023-06-10T04:31:17;11.65;;;10.55;;
12774;SDS011;6451;42.630;23.382;2023-06-10T04:33:44;11.77;;;10.68;;
12774;SDS011;6451;42.630;23.382;2023-06-10T04:36:11;12.07;;;10.95;;
12774;SDS011;6451;42.630;23.382;2023-06-10T04:38:39;13.52;;;10.80;;
12774;SDS011;6451;42.630;23.382;2023-06-10T04:41:07;12.00;;;10.80;;
12774;SDS011;6451;42.630;23.382;2023-06-10T04:43:33;10.73;;;9.73;;
12774;SDS011;6451;42.630;23.382;2023-06-10T04:46:02;12.70;;;10.52;;
12774;SDS011;6451;42.630;23.382;2023-06-10T04:48:28;11.75;;;10.55;;
12774;SDS011;6451;42.630;23.382;2023-06-10T04:50:55;11.63;;;10.43;;
12774;SDS011;6451;42.630;23.382;2023-06-10T04:53:22;12.48;;;10.27;;
12774;SDS011;6451;42.630;23.382;2023-06-10T04:55:49;12.27;;;10.30;;
12774;SDS011;6451;42.630;23.382;2023-06-10T04:58:16;12.35;;;11.00;;
12774;SDS011;6451;42.630;23.382;2023-06-10T05:00:43;13.70;;;10.10;;
12774;SDS011;6451;42.630;23.382;2023-06-10T05:03:11;12.95;;;10.35;;
12774;SDS011;6451;42.630;23.382;2023-06-10T05:05:38;11.73;;;10.52;;
12774;SDS011;6451;42.630;23.382;2023-06-10T05:08:05;11.63;;;10.32;;
12774;SDS011;6451;42.630;23.382;2023-06-10T05:10:32;11.27;;;10.07;;
12774;SDS011;6451;42.630;23.382;2023-06-10T05:12:59;11.25;;;10.15;;
12774;SDS011;6451;42.630;23.382;2023-06-10T05:15:26;10.63;;;9.52;;
12774;SDS011;6451;42.630;23.382;2023-06-10T05:17:53;11.13;;;10.02;;
12774;SDS011;6451;42.630;23.382;2023-06-10T05:20:23;10.65;;;9.55;;
12774;SDS011;6451;42.630;23.382;2023-06-10T05:22:51;11.20;;;9.27;;
12774;SDS011;6451;42.630;23.382;2023-06-10T05:25:18;10.15;;;9.15;;
12774;SDS011;6451;42.630;23.382;2023-06-10T05:27:46;10.52;;;9.35;;
12774;SDS011;6451;42.630;23.382;2023-06-10T05:30:13;10.20;;;9.20;;
12774;SDS011;6451;42.630;23.382;2023-06-10T05:32:42;10.90;;;9.48;;
12774;SDS011;6451;42.630;23.382;2023-06-10T05:35:08;9.55;;;8.65;;
12774;SDS011;6451;42.630;23.382;2023-06-10T05:37:37;9.95;;;8.88;;
12774;SDS011;6451;42.630;23.382;2023-06-10T05:40:04;10.50;;;9.32;;
12774;SDS011;6451;42.630;23.382;2023-06-10T05:42:33;10.25;;;9.25;;
12774;SDS011;6451;42.630;23.382;2023-06-10T05:45:00;10.25;;;9.15;;
12774;SDS011;6451;42.630;23.382;2023-06-10T05:47:27;9.88;;;8.98;;
12774;SDS011;6451;42.630;23.382;2023-06-10T05:49:54;9.95;;;9.02;;
12774;SDS011;6451;42.630;23.382;2023-06-10T05:52:21;10.40;;;9.27;;
12774;SDS011;6451;42.630;23.382;2023-06-10T05:54:49;10.57;;;9.48;;
12774;SDS011;6451;42.630;23.382;2023-06-10T05:57:16;11.30;;;9.02;;
12774;SDS011;6451;42.630;23.382;2023-06-10T05:59:43;10.15;;;9.15;;
12774;SDS011;6451;42.630;23.382;2023-06-10T06:02:10;9.90;;;9.00;;
12774;SDS011;6451;42.630;23.382;2023-06-10T06:04:37;10.65;;;9.55;;
12774;SDS011;6451;42.630;23.382;2023-06-10T06:07:04;11.85;;;10.65;;
12774;SDS011;6451;42.630;23.382;2023-06-10T06:09:31;12.40;;;11.20;;
12774;SDS011;6451;42.630;23.382;2023-06-10T06:12:00;12.20;;;11.07;;
12774;SDS011;6451;42.630;23.382;2023-06-10T06:14:26;11.98;;;10.60;;
12774;SDS011;6451;42.630;23.382;2023-06-10T06:16:57;15.13;;;12.27;;
12774;SDS011;6451;42.630;23.382;2023-06-10T06:19:24;13.02;;;11.73;;
12774;SDS011;6451;42.630;23.382;2023-06-10T06:21:50;12.82;;;11.55;;
12774;SDS011;6451;42.630;23.382;2023-06-10T06:24:17;12.77;;;11.55;;
12774;SDS011;6451;42.630;23.382;2023-06-10T06:26:44;13.90;;;12.50;;
12774;SDS011;6451;42.630;23.382;2023-06-10T06:29:13;14.27;;;13.05;;
12774;SDS011;6451;42.630;23.382;2023-06-10T06:31:39;14.38;;;12.95;;
12774;SDS011;6451;42.630;23.382;2023-06-10T06:34:06;14.15;;;12.38;;
12774;SDS011;6451;42.630;23.382;2023-06-10T06:36:33;14.88;;;12.85;;
12774;SDS011;6451;42.630;23.382;2023-06-10T06:39:00;15.48;;;13.13;;
12774;SDS011;6451;42.630;23.382;2023-06-10T06:41:27;15.75;;;14.15;;
12774;SDS011;6451;42.630;23.382;2023-06-10T06:43:54;14.95;;;13.23;;
12774;SDS011;6451;42.630;23.382;2023-06-10T06:46:24;18.10;;;13.70;;
12774;SDS011;6451;42.630;23.382;2023-06-10T06:48:50;15.38;;;13.82;;
12774;SDS011;6451;42.630;23.382;2023-06-10T06:51:18;20.73;;;14.65;;
12774;SDS011;6451;42.630;23.382;2023-06-10T06:53:45;15.68;;;13.98;;
12774;SDS011;6451;42.630;23.382;2023-06-10T06:56:12;14.93;;;13.30;;
12774;SDS011;6451;42.630;23.382;2023-06-10T06:58:39;14.90;;;13.23;;
12774;SDS011;6451;42.630;23.382;2023-06-10T07:01:06;15.50;;;13.55;;
12774;SDS011;6451;42.630;23.382;2023-06-10T07:03:35;19.20;;;14.05;;
12774;SDS011;6451;42.630;23.382;2023-06-10T07:06:02;15.45;;;13.25;;
12774;SDS011;6451;42.630;23.382;2023-06-10T07:08:30;19.23;;;13.00;;
12774;SDS011;6451;42.630;23.382;2023-06-10T07:10:57;14.15;;;11.85;;
12774;SDS011;6451;42.630;23.382;2023-06-10T07:13:24;15.07;;;11.80;;
12774;SDS011;6451;42.630;23.382;2023-06-10T07:15:50;15.05;;;11.23;;
12774;SDS011;6451;42.630;23.382;2023-06-10T07:18:17;15.27;;;10.88;;
12774;SDS011;6451;42.630;23.382;2023-06-10T07:20:45;14.27;;;11.20;;
12774;SDS011;6451;42.630;23.382;2023-06-10T07:23:13;12.73;;;11.48;;
12774;SDS011;6451;42.630;23.382;2023-06-10T07:25:40;11.75;;;10.63;;
12774;SDS011;6451;42.630;23.382;2023-06-10T07:28:08;12.07;;;10.82;;
12774;SDS011;6451;42.630;23.382;2023-06-10T07:30:35;15.02;;;11.52;;
12774;SDS011;6451;42.630;23.382;2023-06-10T07:33:02;14.07;;;11.10;;
12774;SDS011;6451;42.630;23.382;2023-06-10T07:35:32;11.20;;;10.02;;
12774;SDS011;6451;42.630;23.382;2023-06-10T07:38:00;10.77;;;9.48;;
12774;SDS011;6451;42.630;23.382;2023-06-10T07:40:27;11.63;;;8.27;;
12774;SDS011;6451;42.630;23.382;2023-06-10T07:42:54;9.50;;;7.80;;
12774;SDS011;6451;42.630;23.382;2023-06-10T07:45:21;12.10;;;7.72;;
12774;SDS011;6451;42.630;23.382;2023-06-10T07:47:48;14.25;;;8.35;;
12774;SDS011;6451;42.630;23.382;2023-06-10T07:50:15;7.82;;;6.82;;
12774;SDS011;6451;42.630;23.382;2023-06-10T07:52:43;17.45;;;7.63;;
12774;SDS011;6451;42.630;23.382;2023-06-10T07:55:11;11.07;;;6.60;;
12774;SDS011;6451;42.630;23.382;2023-06-10T07:57:38;9.63;;;6.13;;
12774;SDS011;6451;42.630;23.382;2023-06-10T08:00:05;8.45;;;6.53;;
12774;SDS011;6451;42.630;23.382;2023-06-10T08:02:33;10.50;;;6.28;;
12774;SDS011;6451;42.630;23.382;2023-06-10T08:05:00;9.70;;;6.53;;
12774;SDS011;6451;42.630;23.382;2023-06-10T08:07:27;7.68;;;6.28;;
12774;SDS011;6451;42.630;23.382;2023-06-10T08:09:54;7.95;;;6.35;;
12774;SDS011;6451;42.630;23.382;2023-06-10T08:12:22;8.23;;;5.93;;
12774;SDS011;6451;42.630;23.382;2023-06-10T08:14:49;6.80;;;6.03;;
12774;SDS011;6451;42.630;23.382;2023-06-10T08:17:15;6.75;;;5.90;;
12774;SDS011;6451;42.630;23.382;2023-06-10T08:19:42;9.80;;;5.80;;
12774;SDS011;6451;42.630;23.382;2023-06-10T08:22:09;7.47;;;5.78;;
12774;SDS011;6451;42.630;23.382;2023-06-10T08:24:36;6.53;;;5.22;;
12774;SDS011;6451;42.630;23.382;2023-06-10T08:27:04;9.52;;;6.30;;
12774;SDS011;6451;42.630;23.382;2023-06-10T08:29:33;7.15;;;5.30;;
12774;SDS011;6451;42.630;23.382;2023-06-10T08:32:00;6.95;;;5.45;;
12774;SDS011;6451;42.630;23.382;2023-06-10T08:34:26;8.95;;;5.70;;
12774;SDS011;6451;42.630;23.382;2023-06-10T08:36:53;6.10;;;5.50;;
12774;SDS011;6451;42.630;23.382;2023-06-10T08:39:21;5.35;;;3.75;;
12774;SDS011;6451;42.630;23.382;2023-06-10T08:41:50;4.25;;;3.55;;
12774;SDS011;6451;42.630;23.382;2023-06-10T08:44:27;6.95;;;4.07;;
12774;SDS011;6451;42.630;23.382;2023-06-10T08:46:58;4.45;;;3.70;;
12774;SDS011;6451;42.630;23.382;2023-06-10T08:49:26;6.30;;;4.22;;
12774;SDS011;6451;42.630;23.382;2023-06-10T08:51:58;6.22;;;5.40;;
12774;SDS011;6451;42.630;23.382;2023-06-10T08:54:27;4.40;;;3.33;;
12774;SDS011;6451;42.630;23.382;2023-06-10T08:56:57;6.22;;;3.80;;
12774;SDS011;6451;42.630;23.382;2023-06-10T08:59:26;5.63;;;3.42;;
12774;SDS011;6451;42.630;23.382;2023-06-10T09:01:53;3.50;;;2.97;;
12774;SDS011;6451;42.630;23.382;2023-06-10T09:04:22;4.85;;;2.88;;
12774;SDS011;6451;42.630;23.382;2023-06-10T09:06:51;4.53;;;3.05;;
12774;SDS011;6451;42.630;23.382;2023-06-10T09:09:20;3.30;;;3.00;;
12774;SDS011;6451;42.630;23.382;2023-06-10T09:11:49;4.45;;;2.67;;
12774;SDS011;6451;42.630;23.382;2023-06-10T09:14:15;3.15;;;2.85;;
12774;SDS011;6451;42.630;23.382;2023-06-10T09:16:42;3.30;;;2.90;;
12774;SDS011;6451;42.630;23.382;2023-06-10T09:19:11;3.42;;;2.83;;
12774;SDS011;6451;42.630;23.382;2023-06-10T09:21:40;4.30;;;3.08;;
12774;SDS011;6451;42.630;23.382;2023-06-10T09:24:07;4.18;;;3.00;;
12774;SDS011;6451;42.630;23.382;2023-06-10T09:26:34;3.47;;;3.10;;
12774;SDS011;6451;42.630;23.382;2023-06-10T09:29:04;3.90;;;3.50;;
12774;SDS011;6451;42.630;23.382;2023-06-10T09:31:34;5.13;;;3.58;;
12774;SDS011;6451;42.630;23.382;2023-06-10T09:34:05;4.38;;;3.60;;
12774;SDS011;6451;42.630;23.382;2023-06-10T09:36:33;4.22;;;3.30;;
12774;SDS011;6451;42.630;23.382;2023-06-10T09:39:02;3.95;;;3.53;;
12774;SDS011;6451;42.630;23.382;2023-06-10T09:41:32;5.20;;;4.03;;
12774;SDS011;6451;42.630;23.382;2023-06-10T09:44:00;6.30;;;3.30;;
12774;SDS011;6451;42.630;23.382;2023-06-10T09:46:30;3.50;;;3.20;;
12774;SDS011;6451;42.630;23.382;2023-06-10T09:48:58;4.70;;;3.55;;
12774;SDS011;6451;42.630;23.382;2023-06-10T09:51:25;3.35;;;3.00;;
12774;SDS011;6451;42.630;23.382;2023-06-10T09:53:52;3.80;;;3.40;;
12774;SDS011;6451;42.630;23.382;2023-06-10T09:56:21;4.15;;;3.40;;
12774;SDS011;6451;42.630;23.382;2023-06-10T09:58:49;4.18;;;3.22;;
12774;SDS011;6451;42.630;23.382;2023-06-10T10:01:19;4.70;;;3.33;;
12774;SDS011;6451;42.630;23.382;2023-06-10T10:03:46;7.53;;;3.50;;
12774;SDS011;6451;42.630;23.382;2023-06-10T10:06:17;4.22;;;3.75;;
12774;SDS011;6451;42.630;23.382;2023-06-10T10:08:47;5.75;;;4.18;;
12774;SDS011;6451;42.630;23.382;2023-06-10T10:11:16;4.22;;;3.42;;
12774;SDS011;6451;42.630;23.382;2023-06-10T10:13:47;4.65;;;3.58;;
12774;SDS011;6451;42.630;23.382;2023-06-10T10:16:16;3.83;;;3.10;;
12774;SDS011;6451;42.630;23.382;2023-06-10T10:18:45;4.90;;;3.20;;
12774;SDS011;6451;42.630;23.382;2023-06-10T10:21:15;6.25;;;3.38;;
12774;SDS011;6451;42.630;23.382;2023-06-10T10:23:50;4.88;;;3.38;;
12774;SDS011;6451;42.630;23.382;2023-06-10T10:26:21;3.85;;;3.45;;
12774;SDS011;6451;42.630;23.382;2023-06-10T10:28:51;4.13;;;3.53;;
12774;SDS011;6451;42.630;23.382;2023-06-10T10:31:24;4.68;;;3.40;;
12774;SDS011;6451;42.630;23.382;2023-06-10T10:33:58;5.55;;;3.45;;
12774;SDS011;6451;42.630;23.382;2023-06-10T10:36:26;3.85;;;3.42;;
12774;SDS011;6451;42.630;23.382;2023-06-10T10:38:54;4.35;;;3.25;;
12774;SDS011;6451;42.630;23.382;2023-06-10T10:41:23;4.38;;;2.60;;
12774;SDS011;6451;42.630;23.382;2023-06-10T10:43:54;4.40;;;2.83;;
12774;SDS011;6451;42.630;23.382;2023-06-10T10:46:22;3.42;;;3.13;;
12774;SDS011;6451;42.630;23.382;2023-06-10T10:48:51;4.65;;;3.20;;
12774;SDS011;6451;42.630;23.382;2023-06-10T10:51:19;3.47;;;3.10;;
12774;SDS011;6451;42.630;23.382;2023-06-10T10:56:39;3.67;;;2.70;;
12774;SDS011;6451;42.630;23.382;2023-06-10T10:59:07;3.75;;;3.00;;
12774;SDS011;6451;42.630;23.382;2023-06-10T11:01:40;3.15;;;2.85;;
12774;SDS011;6451;42.630;23.382;2023-06-10T11:04:10;3.58;;;2.90;;
12774;SDS011;6451;42.630;23.382;2023-06-10T11:06:37;4.55;;;2.90;;
12774;SDS011;6451;42.630;23.382;2023-06-10T11:11:52;3.25;;;2.95;;
12774;SDS011;6451;42.630;23.382;2023-06-10T11:14:27;4.45;;;3.17;;
12774;SDS011;6451;42.630;23.382;2023-06-10T11:16:56;4.10;;;3.70;;
12774;SDS011;6451;42.630;23.382;2023-06-10T11:19:33;3.63;;;3.30;;
12774;SDS011;6451;42.630;23.382;2023-06-10T11:22:02;3.20;;;2.70;;
12774;SDS011;6451;42.630;23.382;2023-06-10T11:24:33;4.45;;;3.30;;
12774;SDS011;6451;42.630;23.382;2023-06-10T11:29:59;3.70;;;2.95;;
12774;SDS011;6451;42.630;23.382;2023-06-10T11:32:45;3.63;;;2.88;;
12774;SDS011;6451;42.630;23.382;2023-06-10T11:35:18;5.07;;;3.10;;
12774;SDS011;6451;42.630;23.382;2023-06-10T11:37:46;4.53;;;3.20;;
12774;SDS011;6451;42.630;23.382;2023-06-10T11:40:14;3.53;;;3.10;;
12774;SDS011;6451;42.630;23.382;2023-06-10T11:42:42;3.55;;;3.25;;
12774;SDS011;6451;42.630;23.382;2023-06-10T11:45:14;4.90;;;2.92;;
12774;SDS011;6451;42.630;23.382;2023-06-10T11:47:55;4.80;;;3.15;;
12774;SDS011;6451;42.630;23.382;2023-06-10T11:50:27;4.05;;;2.92;;
12774;SDS011;6451;42.630;23.382;2023-06-10T11:52:55;5.00;;;3.20;;
12774;SDS011;6451;42.630;23.382;2023-06-10T11:55:23;3.83;;;3.25;;
12774;SDS011;6451;42.630;23.382;2023-06-10T11:57:51;6.65;;;5.93;;
12774;SDS011;6451;42.630;23.382;2023-06-10T12:00:24;4.30;;;3.90;;
12774;SDS011;6451;42.630;23.382;2023-06-10T12:02:57;4.07;;;3.15;;
12774;SDS011;6451;42.630;23.382;2023-06-10T12:05:24;3.17;;;2.83;;
12774;SDS011;6451;42.630;23.382;2023-06-10T12:10:39;5.93;;;5.32;;
12774;SDS011;6451;42.630;23.382;2023-06-10T12:13:07;4.05;;;2.83;;
12774;SDS011;6451;42.630;23.382;2023-06-10T12:15:36;3.90;;;2.60;;
12774;SDS011;6451;42.630;23.382;2023-06-10T12:18:03;3.17;;;2.83;;
12774;SDS011;6451;42.630;23.382;2023-06-10T12:20:31;3.83;;;2.70;;
12774;SDS011;6451;42.630;23.382;2023-06-10T12:22:59;2.88;;;2.67;;
12774;SDS011;6451;42.630;23.382;2023-06-10T12:25:27;3.20;;;2.70;;
12774;SDS011;6451;42.630;23.382;2023-06-10T12:27:57;4.75;;;3.00;;
12774;SDS011;6451;42.630;23.382;2023-06-10T12:30:26;3.42;;;3.10;;
12774;SDS011;6451;42.630;23.382;2023-06-10T12:32:55;5.05;;;2.90;;
12774;SDS011;6451;42.630;23.382;2023-06-10T12:35:23;3.30;;;3.00;;
12774;SDS011;6451;42.630;23.382;2023-06-10T12:37:54;3.55;;;2.60;;
12774;SDS011;6451;42.630;23.382;2023-06-10T12:40:25;3.20;;;2.90;;
12774;SDS011;6451;42.630;23.382;2023-06-10T12:42:53;3.22;;;2.90;;
12774;SDS011;6451;42.630;23.382;2023-06-10T12:45:26;3.28;;;2.97;;
12774;SDS011;6451;42.630;23.382;2023-06-10T12:48:05;3.53;;;3.10;;
12774;SDS011;6451;42.630;23.382;2023-06-10T12:50:34;4.32;;;3.00;;
12774;SDS011;6451;42.630;23.382;2023-06-10T12:53:02;4.55;;;3.30;;
12774;SDS011;6451;42.630;23.382;2023-06-10T12:55:29;6.22;;;2.90;;
12774;SDS011;6451;42.630;23.382;2023-06-10T12:57:56;3.38;;;2.75;;
12774;SDS011;6451;42.630;23.382;2023-06-10T13:00:23;5.10;;;2.95;;
12774;SDS011;6451;42.630;23.382;2023-06-10T13:02:54;3.92;;;2.95;;
12774;SDS011;6451;42.630;23.382;2023-06-10T13:05:23;2.90;;;2.70;;
12774;SDS011;6451;42.630;23.382;2023-06-10T13:07:50;3.45;;;3.15;;
12774;SDS011;6451;42.630;23.382;2023-06-10T13:10:18;4.07;;;2.83;;
12774;SDS011;6451;42.630;23.382;2023-06-10T13:12:46;4.85;;;3.40;;
12774;SDS011;6451;42.630;23.382;2023-06-10T13:15:13;4.35;;;3.40;;
12774;SDS011;6451;42.630;23.382;2023-06-10T13:17:41;3.67;;;3.28;;
12774;SDS011;6451;42.630;23.382;2023-06-10T13:20:09;4.32;;;2.95;;
12774;SDS011;6451;42.630;23.382;2023-06-10T13:22:38;3.45;;;3.15;;
12774;SDS011;6451;42.630;23.382;2023-06-10T13:25:06;3.92;;;2.92;;
12774;SDS011;6451;42.630;23.382;2023-06-10T13:27:34;4.30;;;3.22;;
12774;SDS011;6451;42.630;23.382;2023-06-10T13:30:03;4.38;;;3.83;;
12774;SDS011;6451;42.630;23.382;2023-06-10T13:32:31;10.95;;;6.72;;
12774;SDS011;6451;42.630;23.382;2023-06-10T13:34:58;5.15;;;3.50;;
12774;SDS011;6451;42.630;23.382;2023-06-10T13:37:26;4.90;;;3.08;;
12774;SDS011;6451;42.630;23.382;2023-06-10T13:39:54;4.28;;;2.88;;
12774;SDS011;6451;42.630;23.382;2023-06-10T13:42:21;5.45;;;3.70;;
12774;SDS011;6451;42.630;23.382;2023-06-10T13:44:48;5.85;;;4.10;;
12774;SDS011;6451;42.630;23.382;2023-06-10T13:47:16;6.18;;;4.38;;
12774;SDS011;6451;42.630;23.382;2023-06-10T13:49:43;7.55;;;5.00;;
12774;SDS011;6451;42.630;23.382;2023-06-10T13:52:13;5.68;;;4.30;;
12774;SDS011;6451;42.630;23.382;2023-06-10T13:54:40;5.20;;;4.70;;
12774;SDS011;6451;42.630;23.382;2023-06-10T13:57:08;6.70;;;5.18;;
12774;SDS011;6451;42.630;23.382;2023-06-10T13:59:35;8.13;;;4.30;;
12774;SDS011;6451;42.630;23.382;2023-06-10T14:02:03;8.70;;;4.38;;
12774;SDS011;6451;42.630;23.382;2023-06-10T14:04:30;7.40;;;5.10;;
12774;SDS011;6451;42.630;23.382;2023-06-10T14:06:57;8.35;;;5.10;;
12774;SDS011;6451;42.630;23.382;2023-06-10T14:09:24;7.88;;;4.55;;
12774;SDS011;6451;42.630;23.382;2023-06-10T14:11:51;5.72;;;4.32;;
12774;SDS011;6451;42.630;23.382;2023-06-10T14:14:19;5.05;;;4.20;;
12774;SDS011;6451;42.630;23.382;2023-06-10T14:16:48;5.25;;;4.00;;
12774;SDS011;6451;42.630;23.382;2023-06-10T14:19:15;9.48;;;4.10;;
12774;SDS011;6451;42.630;23.382;2023-06-10T14:21:42;4.43;;;4.00;;
12774;SDS011;6451;42.630;23.382;2023-06-10T14:24:09;4.30;;;3.67;;
12774;SDS011;6451;42.630;23.382;2023-06-10T14:26:36;4.43;;;3.70;;
12774;SDS011;6451;42.630;23.382;2023-06-10T14:29:03;4.07;;;3.67;;
12774;SDS011;6451;42.630;23.382;2023-06-10T14:31:31;4.97;;;3.60;;
12774;SDS011;6451;42.630;23.382;2023-06-10T14:33:58;5.43;;;3.80;;
12774;SDS011;6451;42.630;23.382;2023-06-10T14:36:25;4.82;;;3.70;;
12774;SDS011;6451;42.630;23.382;2023-06-10T14:38:52;4.03;;;3.40;;
12774;SDS011;6451;42.630;23.382;2023-06-10T14:41:19;4.03;;;3.63;;
12774;SDS011;6451;42.630;23.382;2023-06-10T14:43:49;5.22;;;3.92;;
12774;SDS011;6451;42.630;23.382;2023-06-10T14:46:17;4.25;;;3.80;;
12774;SDS011;6451;42.630;23.382;2023-06-10T14:48:47;6.90;;;4.10;;
12774;SDS011;6451;42.630;23.382;2023-06-10T14:51:14;4.57;;;3.90;;
12774;SDS011;6451;42.630;23.382;2023-06-10T14:53:41;5.05;;;3.95;;
12774;SDS011;6451;42.630;23.382;2023-06-10T14:56:08;5.97;;;5.38;;